Time;durP1;ratioP1;P1;durP2;ratioP2;P2;SDS_P1;SDS_P2;PMS_P1;PMS_P2;Temp;Humidity;BMP_temperature;BMP_pressure;BME280_temperature;BME280_humidity;BME280_pressure;Samples;Min_cycle;Max_cycle;Signal;HPM_P1;HPM_P2
2022/10/08 00:09:46;;;;;;;;;;;;;;;;;;;;;
2022/10/08 00:20:46;;;;;;;;;;;;;;;;;;;;;
2022/10/08 00:31:46;;;;;;;;;;;;;;;;;;;;;
2022/10/08 00:42:46;;;;;;;;;;;;;;;;;;;;;
2022/10/08 00:53:46;;;;;;;;;;;;;;;;;;;;;
2022/10/08 01:03:46;;;;;;;;;;;;;;;;;;;;;
2022/10/08 01:14:46;;;;;;;;;;;;;;;;;;;;;
2022/10/08 01:25:46;;;;;;;;;;;;;;;;;;;;;
2022/10/08 01:35:46;;;;;;;;;;;;;;;;;;;;;
2022/10/08 01:46:46;;;;;;;;;;;;;;;;;;;;;
2022/10/08 01:56:46;;;;;;;;;;;;;;;;;;;;;
2022/10/08 02:06:46;;;;;;;;;;;;;;;;;;;;;
2022/10/08 02:16:46;;;;;;;;;;;;;;;;;;;;;
2022/10/08 02:27:48;;;;;;;;;;;;;;;;;;;;;
2022/10/08 02:37:46;;;;;;;;;;;;;;;;;;;;;
2022/10/08 02:47:46;;;;;;;;;;;;;;;;;;;;;
2022/10/08 02:58:46;;;;;;;;;;;;;;;;;;;;;
2022/10/08 03:09:46;;;;;;;;;;;;;;;;;;;;;
2022/10/08 03:20:46;;;;;;;;;;;;;;;;;;;;;
2022/10/08 03:30:46;;;;;;;;;;;;;;;;;;;;;
2022/10/08 03:41:46;;;;;;;;;;;;;;;;;;;;;
2022/10/08 03:51:46;;;;;;;;;;;;;;;;;;;;;
2022/10/08 04:01:46;;;;;;;;;;;;;;;;;;;;;
2022/10/08 04:11:46;;;;;;;;;;;;;;;;;;;;;
2022/10/08 04:21:46;;;;;;;;;;;;;;;;;;;;;
2022/10/08 04:32:46;;;;;;;;;;;;;;;;;;;;;
2022/10/08 04:42:46;;;;;;;;;;;;;;;;;;;;;
2022/10/08 04:53:46;;;;;;;;;;;;;;;;;;;;;
2022/10/08 05:03:46;;;;;;;;;;;;;;;;;;;;;
2022/10/08 05:14:46;;;;;;;;;;;;;;;;;;;;;
2022/10/08 05:25:46;;;;;;;;;;;;;;;;;;;;;
2022/10/08 05:36:46;;;;;;;;;;;;;;;;;;;;;
2022/10/08 05:46:46;;;;;;;;;;;;;;;;;;;;;
2022/10/08 05:57:46;;;;;;;;;;;;;;;;;;;;;
2022/10/08 06:08:46;;;;;;;;;;;;;;;;;;;;;
2022/10/08 06:19:46;;;;;;;;;;;;;;;;;;;;;
2022/10/08 06:29:46;;;;;;;;;;;;;;;;;;;;;
2022/10/08 06:39:46;;;;;;;;;;;;;;;;;;;;;
2022/10/08 06:50:46;;;;;;;;;;;;;;;;;;;;;
2022/10/08 07:00:46;;;;;;;;;;;;;;;;;;;;;
2022/10/08 07:11:46;;;;;;;;;;;;;;;;;;;;;
2022/10/08 07:21:46;;;;;;;;;;;;;;;;;;;;;
2022/10/08 07:32:46;;;;;;;19;21.3;;;;;;;11.9;88.7;99160;;;;
2022/10/08 07:42:46;;;;;;;16.6;19.2;;;;;;;12.5;88.5;99160;;;;
2022/10/08 07:53:46;;;;;;;16.6;19.2;;;;;;;13.2;87.2;99150;;;;
2022/10/08 08:04:46;;;;;;;16.6;19.2;;;;;;;13.8;86.1;99150;;;;
2022/10/08 08:14:46;;;;;;;12.7;16;;;;;;;14.4;84.7;99130;;;;
2022/10/08 08:24:46;;;;;;;12.7;16;;;;;;;15.1;83.9;99130;;;;
2022/10/08 08:35:46;;;;;;;12.7;16;;;;;;;15.8;82.2;99120;;;;
2022/10/08 08:46:46;;;;;;;8.7;13.7;;;;;;;16.5;77;99120;;;;
2022/10/08 08:56:46;;;;;;;8.7;13.7;;;;;;;17;74.6;99110;;;;
2022/10/08 09:06:46;;;;;;;8.7;13.7;;;;;;;17.4;73;99110;;;;
2022/10/08 09:16:46;;;;;;;5.3;13.3;;;;;;;17.9;67.7;99110;;;;
2022/10/08 09:26:46;;;;;;;5.3;13.3;;;;;;;17.9;66.5;99110;;;;
2022/10/08 09:37:46;;;;;;;4;7.8;;;;;;;18.3;65.7;99090;;;;
2022/10/08 09:47:46;;;;;;;4;7.8;;;;;;;18.7;64.5;99090;;;;
2022/10/08 09:58:46;;;;;;;4;7.8;;;;;;;19;62.7;99070;;;;
2022/10/08 10:08:47;;;;;;;4.7;8.1;;;;;;;19.2;62.9;99060;;;;
2022/10/08 10:19:46;;;;;;;4.7;8.1;;;;;;;19.5;61.3;99050;;;;
2022/10/08 10:29:46;;;;;;;4.7;8.1;;;;;;;19.8;61.3;99030;;;;
2022/10/08 10:40:46;;;;;;;4.3;7.3;;;;;;;20.2;60.5;99030;;;;
2022/10/08 10:50:46;;;;;;;4.3;7.3;;;;;;;20.3;60.6;99020;;;;
2022/10/08 11:01:46;;;;;;;4.3;7.3;;;;;;;20.5;61.5;99010;;;;
2022/10/08 11:12:46;;;;;;;5.4;7.8;;;;;;;20.8;58.5;98990;;;;
2022/10/08 11:22:46;;;;;;;5.4;7.8;;;;;;;20.9;58.4;98980;;;;
2022/10/08 11:32:46;;;;;;;5.4;7.8;;;;;;;21.1;57.3;98960;;;;
2022/10/08 11:43:46;;;;;;;4.2;8.5;;;;;;;21.2;57.8;98950;;;;
2022/10/08 11:54:47;;;;;;;4.2;8.5;;;;;;;21.5;58.3;98940;;;;
2022/10/08 12:04:46;;;;;;;4.2;8.5;;;;;;;21.5;56.4;98930;;;;
2022/10/08 12:15:46;;;;;;;4.7;8.1;;;;;;;21.8;57.7;98920;;;;
2022/10/08 12:25:48;;;;;;;4.7;8.1;;;;;;;21.6;56.1;98920;;;;
2022/10/08 12:36:46;;;;;;;4.7;8.1;;;;;;;21.7;58.3;98920;;;;
2022/10/08 12:46:46;;;;;;;4.9;7.5;;;;;;;21.7;57;98910;;;;
2022/10/08 12:57:46;;;;;;;4.9;7.5;;;;;;;21.7;56.8;98910;;;;
2022/10/08 13:07:46;;;;;;;6.3;8.7;;;;;;;21.6;57.8;98900;;;;
2022/10/08 13:17:46;;;;;;;6.3;8.7;;;;;;;21.6;58.6;98890;;;;
2022/10/08 13:27:46;;;;;;;6.3;8.7;;;;;;;21.4;59.7;98900;;;;
2022/10/08 13:38:46;;;;;;;7;12.8;;;;;;;21.3;60.1;98910;;;;
2022/10/08 13:49:46;;;;;;;7;12.8;;;;;;;21.1;61.2;98900;;;;
2022/10/08 13:59:46;;;;;;;7;12.8;;;;;;;21.1;61.8;98900;;;;
2022/10/08 14:09:46;;;;;;;8.6;11;;;;;;;21;62.8;98900;;;;
2022/10/08 14:20:46;;;;;;;8.6;11;;;;;;;20.8;63.3;98890;;;;
2022/10/08 14:30:46;;;;;;;8.6;11;;;;;;;20.7;65;98890;;;;
2022/10/08 14:40:46;;;;;;;10.6;13.7;;;;;;;20.4;65.2;98890;;;;
2022/10/08 14:51:46;;;;;;;10.6;13.7;;;;;;;20.2;66.2;98890;;;;
2022/10/08 15:02:46;;;;;;;10.6;13.7;;;;;;;19.9;67.2;98890;;;;
2022/10/08 15:13:46;;;;;;;11.2;15.4;;;;;;;19.6;68.1;98900;;;;
2022/10/08 15:23:46;;;;;;;11.2;15.4;;;;;;;19.3;69.7;98920;;;;
2022/10/08 15:34:46;;;;;;;11.2;15.4;;;;;;;19;70.4;98930;;;;
2022/10/08 15:45:46;;;;;;;12.1;15.9;;;;;;;18.7;71.1;98940;;;;
2022/10/08 15:55:46;;;;;;;12.1;15.9;;;;;;;18.3;72.1;98950;;;;
2022/10/08 16:06:46;;;;;;;12.1;15.9;;;;;;;17.9;73.5;98960;;;;
2022/10/08 16:16:46;;;;;;;13.6;19.1;;;;;;;17.5;75;98970;;;;
2022/10/08 16:27:46;;;;;;;13.6;19.1;;;;;;;17.2;75.6;98980;;;;
2022/10/08 16:38:46;;;;;;;14.3;18.4;;;;;;;16.9;76.2;98980;;;;
2022/10/08 16:48:47;;;;;;;14.3;18.4;;;;;;;16.4;76.3;98990;;;;
2022/10/08 16:59:47;;;;;;;14.3;18.4;;;;;;;16.1;77.8;99000;;;;
2022/10/08 17:09:46;;;;;;;16.8;22.2;;;;;;;15.8;78.4;99010;;;;
2022/10/08 17:19:46;;;;;;;16.8;22.2;;;;;;;15.6;79.8;99020;;;;
2022/10/08 17:29:46;;;;;;;16.8;22.2;;;;;;;15.4;79.5;99020;;;;
2022/10/08 17:39:46;;;;;;;21.6;26.4;;;;;;;15.1;79.8;99040;;;;
2022/10/08 17:49:46;;;;;;;21.6;26.4;;;;;;;14.9;80.5;99040;;;;
2022/10/08 18:00:46;;;;;;;21.6;26.4;;;;;;;14.7;81.4;99060;;;;
2022/10/08 18:11:46;;;;;;;24.2;32.3;;;;;;;14.6;82.6;99060;;;;
2022/10/08 18:21:46;;;;;;;24.2;32.3;;;;;;;14.6;83.3;99070;;;;
2022/10/08 18:31:46;;;;;;;24.2;32.3;;;;;;;14.5;84;99080;;;;
2022/10/08 18:41:46;;;;;;;24.3;29.1;;;;;;;14.5;84.1;99080;;;;
2022/10/08 18:52:46;;;;;;;24.3;29.1;;;;;;;14.4;85;99080;;;;
2022/10/08 19:03:46;;;;;;;24.3;29.1;;;;;;;14.3;85.5;99090;;;;
2022/10/08 19:13:46;;;;;;;24.5;29.2;;;;;;;14.2;85.4;99110;;;;
2022/10/08 19:24:46;;;;;;;24.5;29.2;;;;;;;14.2;86.3;99130;;;;
2022/10/08 19:35:46;;;;;;;24.5;29.2;;;;;;;14.3;86.6;99140;;;;
2022/10/08 19:45:46;;;;;;;25.6;34.6;;;;;;;14.5;86.6;99140;;;;
2022/10/08 19:55:47;;;;;;;25.6;34.6;;;;;;;14.4;86.4;99160;;;;
2022/10/08 20:06:46;;;;;;;25.6;34.6;;;;;;;14.5;86.4;99170;;;;
2022/10/08 20:16:46;;;;;;;28.5;33.1;;;;;;;14.5;86.7;99180;;;;
2022/10/08 20:27:46;;;;;;;28.5;33.1;;;;;;;14.4;86.7;99200;;;;
2022/10/08 20:37:46;;;;;;;29.2;37.5;;;;;;;14.3;87.1;99200;;;;
2022/10/08 20:47:46;;;;;;;29.2;37.5;;;;;;;14.3;87.6;99210;;;;
2022/10/08 20:58:46;;;;;;;29.2;37.5;;;;;;;14.4;87.6;99220;;;;
2022/10/08 21:09:51;;;;;;;33.1;40.3;;;;;;;14.4;87.7;99220;;;;
2022/10/08 21:20:47;;;;;;;33.1;40.3;;;;;;;14.5;87.4;99230;;;;
2022/10/08 21:31:46;;;;;;;33.1;40.3;;;;;;;14.5;87.3;99230;;;;
2022/10/08 21:42:46;;;;;;;28.4;35.3;;;;;;;14.6;86.9;99230;;;;
2022/10/08 21:53:46;;;;;;;28.4;35.3;;;;;;;14.6;87;99240;;;;
2022/10/08 22:03:46;;;;;;;28.4;35.3;;;;;;;14.7;86.9;99250;;;;
2022/10/08 22:14:46;;;;;;;30.2;36.1;;;;;;;14.7;86.6;99250;;;;
2022/10/08 22:24:47;;;;;;;30.2;36.1;;;;;;;14.7;86.5;99260;;;;
2022/10/08 22:35:46;;;;;;;30.2;36.1;;;;;;;14.7;86.4;99270;;;;
2022/10/08 22:45:46;;;;;;;30.4;39.4;;;;;;;14.7;86.5;99270;;;;
2022/10/08 22:56:46;;;;;;;30.4;39.4;;;;;;;14.8;86.2;99290;;;;
2022/10/08 23:07:46;;;;;;;33.8;37.8;;;;;;;14.7;86;99290;;;;
2022/10/08 23:17:46;;;;;;;33.8;37.8;;;;;;;14.8;85.6;99300;;;;
2022/10/08 23:27:46;;;;;;;33.8;37.8;;;;;;;14.7;85.5;99310;;;;
2022/10/08 23:38:47;;;;;;;27.2;31.8;;;;;;;14.7;85.3;99330;;;;
2022/10/08 23:49:46;;;;;;;27.2;31.8;;;;;;;14.6;84.8;99350;;;;
